Time;durP1;ratioP1;P1;durP2;ratioP2;P2;SDS_P1;SDS_P2;PMS_P1;PMS_P2;Temp;Humidity;BMP_temperature;BMP_pressure;BME280_temperature;BME280_humidity;BME280_pressure;Samples;Min_cycle;Max_cycle;Signal;HPM_P1;HPM_P2
2021/07/21 00:00:20;;;;;;;8.95;4.75;;;19.20;77.10;;;;;;5095833;28;20449;-72
2021/07/21 00:02:46;;;;;;;11.27;5.72;;;19.10;77.40;;;;;;5113126;28;20031;-73
2021/07/21 00:05:13;;;;;;;9.90;5.00;;;19.10;77.60;;;;;;5095684;28;20026;-72
2021/07/21 00:07:39;;;;;;;9.63;5.35;;;19.00;77.80;;;;;;5094476;28;20059;-72
2021/07/21 00:10:07;;;;;;;9.07;5.38;;;18.90;78.90;;;;;;5113762;28;20019;-72
2021/07/21 00:15:19;;;;;;;11.70;5.78;;;18.90;78.50;;;;;;5113863;28;20034;-72
2021/07/21 00:17:46;;;;;;;9.93;5.47;;;18.80;79.50;;;;;;5112922;28;20035;-72
2021/07/21 00:20:15;;;;;;;9.63;5.10;;;18.90;79.30;;;;;;5095273;28;20030;-72
2021/07/21 00:22:42;;;;;;;8.88;5.22;;;18.80;79.30;;;;;;5094485;28;20490;-72
2021/07/21 00:25:16;;;;;;;10.93;5.05;;;18.80;79.40;;;;;;5095299;28;20028;-72
2021/07/21 00:27:46;;;;;;;9.20;5.15;;;18.70;79.60;;;;;;5094501;28;20127;-72
2021/07/21 00:30:15;;;;;;;8.95;4.93;;;18.70;79.40;;;;;;5113215;28;20076;-72
2021/07/21 00:32:41;;;;;;;8.18;5.13;;;18.60;79.40;;;;;;5094533;28;20031;-72
2021/07/21 00:35:08;;;;;;;9.27;5.05;;;18.60;79.90;;;;;;5095177;28;20043;-72
2021/07/21 00:37:35;;;;;;;10.75;5.75;;;18.60;80.00;;;;;;5094377;28;20086;-74
2021/07/21 00:40:02;;;;;;;11.30;5.28;;;18.50;80.40;;;;;;5113381;28;20548;-72
2021/07/21 00:42:27;;;;;;;11.40;5.65;;;18.40;80.30;;;;;;5094996;28;20023;-72
2021/07/21 00:44:53;;;;;;;10.27;5.63;;;18.30;80.70;;;;;;5112667;28;20174;-72
2021/07/21 00:47:20;;;;;;;10.15;5.00;;;18.30;81.20;;;;;;5113165;28;20520;-72
2021/07/21 00:49:45;;;;;;;11.25;5.60;;;18.30;81.20;;;;;;5093908;28;20061;-72
2021/07/21 00:52:11;;;;;;;10.05;5.75;;;18.30;81.20;;;;;;5094901;28;20066;-72
2021/07/21 00:54:37;;;;;;;10.38;5.28;;;18.20;80.70;;;;;;5112075;28;20031;-73
2021/07/21 00:57:04;;;;;;;9.18;5.28;;;18.20;80.70;;;;;;5095062;28;20065;-72
2021/07/21 00:59:35;;;;;;;11.43;5.47;;;18.20;80.50;;;;;;5094614;28;20039;-72
2021/07/21 01:02:02;;;;;;;7.93;4.90;;;18.20;80.60;;;;;;5094774;28;20479;-73
2021/07/21 01:04:29;;;;;;;8.27;5.05;;;18.20;80.20;;;;;;5093992;28;20279;-72
2021/07/21 01:06:56;;;;;;;10.15;5.03;;;18.20;80.00;;;;;;5093358;28;20075;-72
2021/07/21 01:09:21;;;;;;;9.75;5.03;;;18.20;79.70;;;;;;5112895;28;20038;-72
2021/07/21 01:12:14;;;;;;;11.15;5.13;;;18.20;79.10;;;;;;5112275;28;20023;-72
2021/07/21 01:15:13;;;;;;;9.95;5.22;;;18.30;79.20;;;;;;5093899;28;20046;-73
2021/07/21 01:18:02;;;;;;;8.68;5.30;;;18.30;78.60;;;;;;5093766;28;20126;-73
2021/07/21 01:20:50;;;;;;;10.07;5.07;;;18.30;78.40;;;;;;5094673;28;20461;-72
2021/07/21 01:23:48;;;;;;;10.57;5.03;;;18.30;78.50;;;;;;5094380;28;20486;-72
2021/07/21 01:26:31;;;;;;;9.98;5.32;;;18.30;78.70;;;;;;5060150;28;20060;-72
2021/07/21 01:28:58;;;;;;;7.00;4.88;;;18.20;78.90;;;;;;5097814;28;20110;-72
2021/07/21 01:31:36;;;;;;;8.13;5.18;;;18.20;78.80;;;;;;5098564;28;20023;-72
2021/07/21 01:34:03;;;;;;;12.30;4.65;;;18.20;79.00;;;;;;5116705;28;20019;-72
2021/07/21 01:36:32;;;;;;;11.63;5.07;;;18.20;78.90;;;;;;5098440;28;20047;-72
2021/07/21 01:39:03;;;;;;;8.93;5.00;;;18.20;79.00;;;;;;5097655;28;20032;-72
2021/07/21 01:41:34;;;;;;;8.85;4.53;;;18.20;79.00;;;;;;5098366;28;20547;-71
2021/07/21 01:44:28;;;;;;;8.95;5.20;;;18.10;79.20;;;;;;5116331;28;20020;-72
2021/07/21 01:46:58;;;;;;;8.93;4.70;;;18.10;79.30;;;;;;5110485;28;20043;-72
2021/07/21 01:49:27;;;;;;;8.48;4.82;;;18.10;79.40;;;;;;5097785;28;20035;-72
2021/07/21 01:52:01;;;;;;;11.43;4.65;;;18.10;79.60;;;;;;5097454;28;20027;-72
2021/07/21 01:54:27;;;;;;;9.15;4.85;;;18.00;79.80;;;;;;5115962;28;20372;-72
2021/07/21 01:56:52;;;;;;;8.98;4.70;;;18.00;79.80;;;;;;5097160;28;20027;-72
2021/07/21 01:59:21;;;;;;;7.85;4.65;;;18.00;79.90;;;;;;5116084;28;20035;-72
2021/07/21 02:01:48;;;;;;;9.63;5.10;;;18.00;79.90;;;;;;5097283;28;20032;-72
2021/07/21 02:04:14;;;;;;;7.72;4.78;;;18.00;79.80;;;;;;5116252;28;20023;-72
2021/07/21 02:06:40;;;;;;;8.15;5.03;;;18.00;79.50;;;;;;5097018;28;21072;-73
2021/07/21 02:09:08;;;;;;;9.77;4.80;;;18.00;79.40;;;;;;5097934;28;20059;-72
2021/07/21 02:11:35;;;;;;;9.65;4.80;;;18.00;79.40;;;;;;5097849;28;20427;-72
2021/07/21 02:14:03;;;;;;;11.40;4.97;;;18.00;79.50;;;;;;5115396;28;20024;-72
2021/07/21 02:16:29;;;;;;;9.45;4.75;;;17.90;79.10;;;;;;5116053;28;20019;-72
2021/07/21 02:18:57;;;;;;;9.52;5.00;;;17.90;79.40;;;;;;5114866;28;20077;-72
2021/07/21 02:21:25;;;;;;;8.68;4.85;;;17.80;79.10;;;;;;5116023;28;20055;-72
2021/07/21 02:23:51;;;;;;;8.45;5.05;;;17.80;79.20;;;;;;5115154;28;20028;-72
2021/07/21 02:26:18;;;;;;;8.05;4.75;;;17.80;79.30;;;;;;5115575;28;20103;-72
2021/07/21 02:28:45;;;;;;;8.88;4.90;;;17.80;79.30;;;;;;5096689;28;20038;-72
2021/07/21 02:31:30;;;;;;;8.27;4.88;;;17.70;79.40;;;;;;5097389;28;20050;-72
2021/07/21 02:34:02;;;;;;;9.02;4.90;;;17.50;79.20;;;;;;5096879;28;20065;-72
2021/07/21 02:36:28;;;;;;;9.13;4.80;;;17.50;80.10;;;;;;5096868;28;20027;-72
2021/07/21 02:38:53;;;;;;;8.13;4.68;;;17.50;80.00;;;;;;5096686;28;20080;-72
2021/07/21 02:41:19;;;;;;;9.00;5.20;;;17.40;80.00;;;;;;5096765;28;20023;-72
2021/07/21 02:43:45;;;;;;;8.68;4.13;;;17.40;80.20;;;;;;5095990;28;20418;-73
2021/07/21 02:46:11;;;;;;;8.15;4.70;;;17.40;80.00;;;;;;5115419;28;20039;-72
2021/07/21 02:48:37;;;;;;;9.40;4.90;;;17.40;79.90;;;;;;5097005;28;20468;-72
2021/07/21 02:51:13;;;;;;;9.93;4.68;;;17.30;80.00;;;;;;5114512;28;20036;-72
2021/07/21 02:53:45;;;;;;;7.10;4.63;;;17.30;80.10;;;;;;5097088;28;20054;-75
2021/07/21 02:56:14;;;;;;;8.48;4.88;;;17.30;80.60;;;;;;5097234;28;20024;-72
2021/07/21 02:58:48;;;;;;;9.40;4.80;;;17.20;80.20;;;;;;5096550;28;20032;-75
2021/07/21 03:01:17;;;;;;;8.48;5.20;;;17.20;80.00;;;;;;5096936;28;20024;-72
2021/07/21 03:03:44;;;;;;;9.00;4.68;;;17.20;80.00;;;;;;5096243;28;20115;-75
2021/07/21 03:06:11;;;;;;;9.95;4.68;;;17.20;80.30;;;;;;5096978;28;20481;-72
2021/07/21 03:08:37;;;;;;;6.57;4.40;;;17.20;80.10;;;;;;5096380;28;20392;-72
2021/07/21 03:11:05;;;;;;;8.40;4.80;;;17.20;80.20;;;;;;5095431;28;20027;-72
2021/07/21 03:13:52;;;;;;;8.10;4.47;;;17.20;80.30;;;;;;5096650;28;20114;-72
2021/07/21 03:16:24;;;;;;;7.07;4.53;;;17.20;80.60;;;;;;5096851;28;20081;-72
2021/07/21 03:18:53;;;;;;;12.73;5.32;;;17.30;80.00;;;;;;5095955;28;20418;-72
2021/07/21 03:21:20;;;;;;;10.70;5.03;;;17.20;79.70;;;;;;5114784;28;20022;-71
2021/07/21 03:23:46;;;;;;;7.70;4.78;;;17.20;80.00;;;;;;5114094;28;20486;-73
2021/07/21 03:26:13;;;;;;;10.10;4.90;;;17.20;80.10;;;;;;5114028;28;20161;-72
2021/07/21 03:28:39;;;;;;;7.38;4.65;;;17.20;80.10;;;;;;5096282;28;20039;-72
2021/07/21 03:31:06;;;;;;;7.82;4.80;;;17.10;80.20;;;;;;5113742;28;20487;-72
2021/07/21 03:33:33;;;;;;;8.27;4.75;;;17.10;80.40;;;;;;5114375;28;20375;-72
2021/07/21 03:36:04;;;;;;;9.80;4.80;;;17.00;80.30;;;;;;5113544;28;20476;-72
2021/07/21 03:38:30;;;;;;;7.88;4.70;;;17.00;80.60;;;;;;5096095;28;20035;-72
2021/07/21 03:40:57;;;;;;;8.80;4.50;;;17.00;80.80;;;;;;5095308;28;20027;-72
2021/07/21 03:43:24;;;;;;;8.38;4.57;;;16.90;80.90;;;;;;5114391;28;20031;-72
2021/07/21 03:45:51;;;;;;;7.53;4.75;;;16.90;80.80;;;;;;5095392;28;20024;-73
2021/07/21 03:48:18;;;;;;;8.25;5.00;;;16.90;80.80;;;;;;5113088;28;20522;-72
2021/07/21 03:50:45;;;;;;;8.73;4.78;;;16.90;81.10;;;;;;5095657;28;20437;-74
2021/07/21 03:53:12;;;;;;;8.80;4.63;;;16.80;80.90;;;;;;5095729;28;20038;-72
2021/07/21 03:55:38;;;;;;;8.20;4.65;;;16.80;80.90;;;;;;5096055;28;20028;-72
2021/07/21 03:58:04;;;;;;;9.32;4.53;;;16.80;81.00;;;;;;5095186;28;20165;-72
2021/07/21 04:00:30;;;;;;;8.90;4.90;;;16.70;81.00;;;;;;5095698;28;20035;-72
2021/07/21 04:02:59;;;;;;;10.13;4.72;;;16.70;81.30;;;;;;5095018;28;20031;-72
2021/07/21 04:05:27;;;;;;;10.27;5.00;;;16.70;82.00;;;;;;5095789;28;20023;-72
2021/07/21 04:07:54;;;;;;;8.10;4.55;;;16.70;81.60;;;;;;5091040;28;20417;-72
2021/07/21 04:10:22;;;;;;;10.25;4.82;;;16.70;82.00;;;;;;5092111;28;20058;-72
2021/07/21 04:12:51;;;;;;;8.88;4.80;;;16.70;82.20;;;;;;5092708;28;20032;-74
2021/07/21 04:15:21;;;;;;;9.20;5.13;;;16.60;82.40;;;;;;5093141;28;20047;-72
2021/07/21 04:17:49;;;;;;;10.82;5.05;;;16.70;82.80;;;;;;5091321;28;20055;-75
2021/07/21 04:20:16;;;;;;;8.25;4.78;;;16.70;82.80;;;;;;5091892;28;20465;-72
2021/07/21 04:22:42;;;;;;;9.13;5.53;;;16.70;82.90;;;;;;5091980;28;20028;-72
2021/07/21 04:25:10;;;;;;;8.68;4.88;;;16.70;82.90;;;;;;5091228;28;20366;-72
2021/07/21 04:27:38;;;;;;;8.93;4.90;;;16.70;83.00;;;;;;5091757;28;20020;-72
2021/07/21 04:30:05;;;;;;;9.38;4.93;;;16.70;83.10;;;;;;5091055;28;20024;-72
2021/07/21 04:32:32;;;;;;;9.55;5.45;;;16.70;83.20;;;;;;5093033;28;20024;-72
2021/07/21 04:34:57;;;;;;;11.70;5.22;;;16.70;83.20;;;;;;5091197;28;20020;-72
2021/07/21 04:37:24;;;;;;;9.02;4.95;;;16.60;83.20;;;;;;5091411;28;20354;-72
2021/07/21 04:39:52;;;;;;;10.82;5.63;;;16.60;83.30;;;;;;5091240;28;20028;-72
2021/07/21 04:42:18;;;;;;;8.10;5.28;;;16.70;83.80;;;;;;5091617;28;20459;-72
2021/07/21 04:44:45;;;;;;;10.32;5.22;;;16.70;83.90;;;;;;5091629;28;20059;-72
2021/07/21 04:47:13;;;;;;;8.23;5.18;;;16.70;84.00;;;;;;5091205;28;20028;-72
2021/07/21 04:49:42;;;;;;;9.43;5.68;;;16.70;84.00;;;;;;5092857;28;20036;-72
2021/07/21 04:52:08;;;;;;;11.25;5.50;;;16.60;84.40;;;;;;5090945;28;20114;-72
2021/07/21 04:54:34;;;;;;;10.98;5.53;;;16.60;84.50;;;;;;5091693;28;20067;-72
2021/07/21 04:57:01;;;;;;;11.07;6.00;;;16.60;84.70;;;;;;5092137;28;20107;-72
2021/07/21 04:59:27;;;;;;;10.90;5.55;;;16.60;85.20;;;;;;5091293;28;20086;-72
2021/07/21 05:01:53;;;;;;;8.63;5.13;;;16.60;85.40;;;;;;5090719;28;20072;-72
2021/07/21 05:04:19;;;;;;;9.60;5.75;;;16.60;85.50;;;;;;5092739;28;20056;-72
2021/07/21 05:06:45;;;;;;;9.38;5.53;;;16.60;85.40;;;;;;5093360;28;20480;-72
2021/07/21 05:09:13;;;;;;;12.10;5.57;;;16.60;85.80;;;;;;5112260;28;20073;-72
2021/07/21 05:11:39;;;;;;;11.63;5.70;;;16.60;85.50;;;;;;5094577;28;20027;-72
2021/07/21 05:14:05;;;;;;;9.00;5.72;;;16.60;85.50;;;;;;5093233;28;20058;-72
2021/07/21 05:16:31;;;;;;;11.50;5.38;;;16.60;85.80;;;;;;5094660;28;20020;-72
2021/07/21 05:18:57;;;;;;;9.10;4.97;;;16.60;85.80;;;;;;5093267;28;20027;-73
2021/07/21 05:21:23;;;;;;;10.30;5.47;;;16.70;85.50;;;;;;5093871;28;20023;-72
2021/07/21 05:23:50;;;;;;;9.82;5.10;;;16.70;85.40;;;;;;5093731;28;20020;-74
2021/07/21 05:26:16;;;;;;;10.50;5.55;;;16.70;85.10;;;;;;5094051;28;20140;-72
2021/07/21 05:28:42;;;;;;;11.60;5.60;;;16.70;85.30;;;;;;5112574;28;20056;-72
2021/07/21 05:31:08;;;;;;;10.10;5.57;;;16.70;85.40;;;;;;5093565;28;20027;-72
2021/07/21 05:33:34;;;;;;;10.90;5.47;;;16.70;85.60;;;;;;5112299;28;20446;-72
2021/07/21 05:36:01;;;;;;;7.75;5.22;;;16.70;85.90;;;;;;5093627;28;20110;-72
2021/07/21 05:38:27;;;;;;;11.15;5.57;;;16.80;85.90;;;;;;5094352;28;20034;-72
2021/07/21 05:40:53;;;;;;;10.43;5.68;;;16.90;85.70;;;;;;5093483;28;20032;-73
2021/07/21 05:43:18;;;;;;;9.35;5.65;;;17.00;85.90;;;;;;5094359;28;20062;-73
2021/07/21 05:45:44;;;;;;;10.23;5.40;;;17.00;85.20;;;;;;5094328;28;20465;-73
2021/07/21 05:48:10;;;;;;;9.82;5.18;;;17.00;84.80;;;;;;5093433;28;20594;-73
2021/07/21 05:50:36;;;;;;;10.85;4.88;;;17.10;84.50;;;;;;5094258;28;20027;-73
2021/07/21 05:53:02;;;;;;;8.73;4.90;;;17.10;84.70;;;;;;5092689;28;20019;-73
2021/07/21 05:55:28;;;;;;;8.07;5.13;;;17.10;83.80;;;;;;5112299;28;20533;-73
2021/07/21 05:57:53;;;;;;;9.80;5.05;;;17.20;83.40;;;;;;5093575;28;20368;-75
2021/07/21 06:00:19;;;;;;;9.40;4.55;;;17.20;82.90;;;;;;5093994;28;20081;-73
2021/07/21 06:02:45;;;;;;;7.32;4.35;;;17.20;82.50;;;;;;5094015;28;20470;-73
2021/07/21 06:05:11;;;;;;;8.02;4.40;;;17.20;81.90;;;;;;5093202;28;20038;-73
2021/07/21 06:07:37;;;;;;;7.35;4.30;;;17.30;82.30;;;;;;5093479;28;20135;-72
2021/07/21 06:10:04;;;;;;;10.35;4.95;;;17.30;82.10;;;;;;5092590;28;20071;-72
2021/07/21 06:12:30;;;;;;;9.43;5.00;;;17.30;81.70;;;;;;5115416;28;20077;-72
2021/07/21 06:14:55;;;;;;;7.07;4.18;;;17.30;81.60;;;;;;5097177;28;20024;-73
2021/07/21 06:17:21;;;;;;;8.00;4.25;;;17.40;81.10;;;;;;5097229;28;20384;-72
2021/07/21 06:19:47;;;;;;;8.68;4.88;;;17.40;80.70;;;;;;5097722;28;20417;-73
2021/07/21 06:22:14;;;;;;;10.18;3.97;;;17.40;80.70;;;;;;5097198;28;20528;-73
2021/07/21 06:24:40;;;;;;;8.43;3.50;;;17.50;80.00;;;;;;5097661;28;20453;-73
2021/07/21 06:27:06;;;;;;;5.75;3.88;;;17.50;80.60;;;;;;5093514;28;20032;-73
2021/07/21 06:29:32;;;;;;;10.48;4.28;;;17.60;80.90;;;;;;5099697;28;20089;-73
2021/07/21 06:31:58;;;;;;;7.45;4.07;;;17.60;80.70;;;;;;5086160;28;20425;-73
2021/07/21 06:34:24;;;;;;;8.10;4.05;;;17.60;81.30;;;;;;5086125;28;20019;-73
2021/07/21 06:36:49;;;;;;;8.98;3.90;;;17.70;80.60;;;;;;5077114;28;20071;-73
2021/07/21 06:39:15;;;;;;;9.75;4.25;;;17.70;80.20;;;;;;5076323;28;20514;-73
2021/07/21 06:41:41;;;;;;;9.60;3.85;;;17.70;80.00;;;;;;5076681;28;20028;-72
2021/07/21 06:44:06;;;;;;;9.20;4.05;;;17.70;79.80;;;;;;5076421;28;20024;-73
2021/07/21 06:46:32;;;;;;;7.50;4.40;;;17.80;79.70;;;;;;5076827;28;20028;-72
2021/07/21 06:48:58;;;;;;;7.90;4.22;;;17.80;80.30;;;;;;5094226;28;20031;-74
2021/07/21 06:51:25;;;;;;;7.68;3.88;;;17.90;79.40;;;;;;5076799;28;20065;-72
2021/07/21 06:53:51;;;;;;;6.60;3.92;;;17.90;79.00;;;;;;5076895;28;20056;-73
2021/07/21 06:56:17;;;;;;;8.63;3.67;;;18.00;79.10;;;;;;5075905;28;20389;-72
2021/07/21 06:58:43;;;;;;;8.65;3.80;;;18.00;78.50;;;;;;5076341;28;20480;-72
2021/07/21 07:01:08;;;;;;;6.47;3.78;;;18.10;78.70;;;;;;5075788;28;20020;-73
2021/07/21 07:03:34;;;;;;;7.88;4.05;;;18.10;79.00;;;;;;5076142;28;20483;-73
2021/07/21 07:06:01;;;;;;;6.05;3.40;;;18.10;78.30;;;;;;5075995;28;20024;-73
2021/07/21 07:08:28;;;;;;;7.05;3.70;;;18.20;78.10;;;;;;5075885;28;20130;-73
2021/07/21 07:10:54;;;;;;;7.57;3.50;;;18.20;78.20;;;;;;5076454;28;20085;-73
2021/07/21 07:13:19;;;;;;;9.30;4.18;;;18.30;78.90;;;;;;5093923;28;20024;-73
2021/07/21 07:15:46;;;;;;;7.40;3.70;;;18.30;79.20;;;;;;5076668;28;20350;-73
2021/07/21 07:18:14;;;;;;;5.75;3.45;;;18.30;79.00;;;;;;5075800;28;20468;-73
2021/07/21 07:20:45;;;;;;;7.72;3.67;;;18.40;79.10;;;;;;5076606;28;20126;-73
2021/07/21 07:23:11;;;;;;;7.75;4.03;;;18.40;79.20;;;;;;5071913;28;20024;-73
2021/07/21 07:25:37;;;;;;;8.25;4.10;;;18.50;78.80;;;;;;5076196;28;20052;-73
2021/07/21 07:28:03;;;;;;;8.60;3.88;;;18.50;78.30;;;;;;5075464;28;20377;-73
2021/07/21 07:30:29;;;;;;;7.63;4.30;;;18.60;78.40;;;;;;5075943;28;20031;-73
2021/07/21 07:32:55;;;;;;;5.43;3.15;;;18.60;77.30;;;;;;5094083;28;20107;-72
2021/07/21 07:35:20;;;;;;;6.55;4.00;;;18.60;78.00;;;;;;5075366;28;20028;-73
2021/07/21 07:37:46;;;;;;;8.70;3.60;;;18.70;78.00;;;;;;5075930;28;20084;-73
2021/07/21 07:40:12;;;;;;;7.47;4.22;;;18.70;78.40;;;;;;5074894;28;20056;-73
2021/07/21 07:42:38;;;;;;;8.82;4.05;;;18.80;78.10;;;;;;5075951;28;20028;-73
2021/07/21 07:45:05;;;;;;;6.93;3.70;;;18.80;77.90;;;;;;5093085;28;20024;-73
2021/07/21 07:47:32;;;;;;;7.70;3.70;;;18.90;76.50;;;;;;5093886;28;20020;-73
2021/07/21 07:50:06;;;;;;;7.47;3.90;;;18.90;76.90;;;;;;5075473;28;20379;-74
2021/07/21 07:52:32;;;;;;;6.20;3.65;;;19.00;77.30;;;;;;5093265;28;20089;-73
2021/07/21 07:54:58;;;;;;;5.95;3.50;;;19.00;76.60;;;;;;5075471;28;20423;-76
2021/07/21 07:57:24;;;;;;;10.88;4.03;;;19.00;76.70;;;;;;5075285;28;20031;-72
2021/07/21 07:59:49;;;;;;;7.50;3.63;;;19.10;76.90;;;;;;5093982;28;20024;-74
2021/07/21 08:02:15;;;;;;;10.00;4.40;;;19.10;76.70;;;;;;5079139;28;20032;-73
2021/07/21 08:04:41;;;;;;;8.32;4.35;;;19.10;77.70;;;;;;5081938;28;20028;-72
2021/07/21 08:07:06;;;;;;;9.02;4.15;;;19.10;77.00;;;;;;5082183;28;20039;-73
2021/07/21 08:09:32;;;;;;;6.53;3.47;;;19.20;77.20;;;;;;5101570;28;20472;-72
2021/07/21 08:11:59;;;;;;;7.93;4.40;;;19.20;76.10;;;;;;5082237;28;20107;-74
2021/07/21 08:14:25;;;;;;;10.52;4.85;;;19.30;76.00;;;;;;5086203;28;20031;-72
2021/07/21 08:16:53;;;;;;;11.65;4.80;;;19.40;76.00;;;;;;5082907;28;20059;-73
2021/07/21 08:19:20;;;;;;;7.70;4.00;;;19.40;75.90;;;;;;5090497;28;20033;-72
2021/07/21 08:21:46;;;;;;;8.63;4.72;;;19.40;76.80;;;;;;5095015;28;20028;-73
2021/07/21 08:24:12;;;;;;;7.50;3.97;;;19.50;76.40;;;;;;5094715;28;20118;-72
2021/07/21 08:26:38;;;;;;;7.90;4.32;;;19.50;76.00;;;;;;5095160;28;20036;-72
2021/07/21 08:29:04;;;;;;;9.00;4.40;;;19.60;76.00;;;;;;5094433;28;20119;-72
2021/07/21 08:31:30;;;;;;;13.05;4.50;;;19.60;75.90;;;;;;5092228;28;20020;-73
2021/07/21 08:34:02;;;;;;;8.73;3.72;;;19.70;75.60;;;;;;5094299;28;20088;-72
2021/07/21 08:36:33;;;;;;;7.80;3.83;;;19.80;75.60;;;;;;5094789;28;20019;-72
2021/07/21 08:38:59;;;;;;;9.23;4.28;;;19.80;75.00;;;;;;5094614;28;20031;-76
2021/07/21 08:41:28;;;;;;;6.93;4.05;;;19.90;75.50;;;;;;5091706;28;20059;-72
2021/07/21 08:43:55;;;;;;;7.80;4.25;;;19.90;76.40;;;;;;5106666;28;20478;-72
2021/07/21 08:46:21;;;;;;;9.07;4.25;;;19.90;76.40;;;;;;5112293;28;20137;-72
2021/07/21 08:48:51;;;;;;;7.00;4.10;;;20.00;76.00;;;;;;5088705;28;20036;-72
2021/07/21 08:51:22;;;;;;;5.68;3.72;;;19.90;75.20;;;;;;5089959;28;20027;-74
2021/07/21 08:53:52;;;;;;;6.03;3.90;;;20.00;75.90;;;;;;5098751;28;20042;-78
2021/07/21 08:56:19;;;;;;;5.65;3.70;;;20.00;75.20;;;;;;5095739;28;20032;-78
2021/07/21 08:58:51;;;;;;;7.32;3.78;;;20.10;74.00;;;;;;5093911;28;20031;-75
2021/07/21 09:01:18;;;;;;;5.97;3.92;;;20.20;74.10;;;;;;5101518;28;20020;-76
2021/07/21 09:03:44;;;;;;;9.13;3.83;;;20.20;73.20;;;;;;5088037;28;20039;-76
2021/07/21 09:06:13;;;;;;;6.57;3.88;;;20.20;73.70;;;;;;5094612;28;20524;-77
2021/07/21 09:08:38;;;;;;;7.93;3.88;;;20.30;72.90;;;;;;5093902;28;20043;-77
2021/07/21 09:11:04;;;;;;;7.57;3.83;;;20.30;73.00;;;;;;5094527;28;20032;-77
2021/07/21 09:13:32;;;;;;;7.03;4.10;;;20.40;74.00;;;;;;5095182;28;20407;-76
2021/07/21 09:15:58;;;;;;;7.43;4.15;;;20.40;74.20;;;;;;5085279;28;20358;-77
2021/07/21 09:18:26;;;;;;;12.38;4.38;;;20.40;72.60;;;;;;5074219;28;20094;-77
2021/07/21 09:20:59;;;;;;;6.45;3.55;;;20.50;72.80;;;;;;5093023;28;20024;-76
2021/07/21 09:23:50;;;;;;;5.55;3.92;;;20.50;73.10;;;;;;5074240;28;20028;-77
2021/07/21 09:26:32;;;;;;;6.00;3.97;;;20.60;73.30;;;;;;5084809;28;20028;-76
2021/07/21 09:29:00;;;;;;;7.25;3.72;;;20.70;71.30;;;;;;5087853;28;20089;-78
2021/07/21 09:31:38;;;;;;;8.40;3.85;;;20.70;70.90;;;;;;5102305;28;20471;-77
2021/07/21 09:34:15;;;;;;;5.45;3.53;;;20.80;70.50;;;;;;5094391;28;20016;-79
2021/07/21 09:36:42;;;;;;;7.32;4.43;;;20.90;71.20;;;;;;5113075;28;20114;-81
2021/07/21 09:39:10;;;;;;;9.20;4.28;;;20.90;70.40;;;;;;5104375;28;20035;-80
2021/07/21 09:41:36;;;;;;;7.20;3.65;;;20.90;70.50;;;;;;5088677;28;20020;-74
2021/07/21 09:44:04;;;;;;;6.22;4.25;;;21.00;69.40;;;;;;5074324;28;20052;-77
2021/07/21 09:46:33;;;;;;;6.72;4.15;;;21.10;70.10;;;;;;5100353;28;20027;-76
2021/07/21 09:48:59;;;;;;;9.60;4.38;;;21.10;69.30;;;;;;5098515;28;20035;-78
2021/07/21 09:51:36;;;;;;;9.15;4.20;;;21.10;70.70;;;;;;5098253;28;20357;-77
2021/07/21 09:54:12;;;;;;;7.07;4.05;;;21.10;69.30;;;;;;5098796;28;20028;-77
2021/07/21 09:56:38;;;;;;;10.27;4.20;;;21.10;69.90;;;;;;5098810;28;20026;-74
2021/07/21 09:59:20;;;;;;;9.07;4.25;;;21.20;69.10;;;;;;5097943;28;20023;-73
2021/07/21 10:01:45;;;;;;;;;;;21.20;68.80;;;;;;5117154;28;20024;-75
2021/07/21 10:04:11;;;;;;;5.85;3.72;;;21.30;68.40;;;;;;5098003;28;19904;-75
2021/07/21 10:06:40;;;;;;;6.25;4.10;;;21.30;67.60;;;;;;5116392;28;20034;-76
2021/07/21 10:09:07;;;;;;;6.90;3.88;;;21.40;69.50;;;;;;5097706;28;20502;-74
2021/07/21 10:11:36;;;;;;;6.10;3.63;;;21.50;67.40;;;;;;5096496;28;20078;-72
2021/07/21 10:14:01;;;;;;;7.15;3.80;;;21.60;68.90;;;;;;5077953;28;20034;-72
2021/07/21 10:16:42;;;;;;;6.50;3.97;;;21.60;67.40;;;;;;5077437;28;20422;-74
2021/07/21 10:19:22;;;;;;;8.35;4.43;;;21.50;66.80;;;;;;5077425;28;20024;-75
2021/07/21 10:21:55;;;;;;;6.95;4.13;;;21.50;66.80;;;;;;5078002;28;20032;-73
2021/07/21 10:24:23;;;;;;;7.22;3.95;;;21.70;66.80;;;;;;5098667;28;20048;-73
2021/07/21 10:26:49;;;;;;;6.13;3.75;;;21.70;65.60;;;;;;5116358;28;20116;-73
2021/07/21 10:29:15;;;;;;;7.22;4.25;;;21.80;66.60;;;;;;5097332;28;20063;-75
2021/07/21 10:31:42;;;;;;;6.45;3.83;;;21.80;66.70;;;;;;5098090;28;20406;-74
2021/07/21 10:34:08;;;;;;;7.72;4.63;;;21.90;67.00;;;;;;5097745;28;20036;-79
2021/07/21 10:36:36;;;;;;;7.28;4.13;;;21.90;67.60;;;;;;5115992;28;20059;-75
2021/07/21 10:39:08;;;;;;;8.82;4.63;;;21.90;66.90;;;;;;5078381;28;20093;-74
2021/07/21 10:41:34;;;;;;;7.07;3.83;;;22.00;66.50;;;;;;5078502;28;20085;-72
2021/07/21 10:44:00;;;;;;;8.13;4.57;;;22.10;68.10;;;;;;5096751;28;20072;-74
2021/07/21 10:46:30;;;;;;;5.97;3.83;;;22.10;66.90;;;;;;5115696;28;20019;-74
2021/07/21 10:49:14;;;;;;;9.85;4.15;;;22.20;65.40;;;;;;5115829;28;20032;-74
2021/07/21 10:54:42;;;;;;;9.38;4.38;;;22.30;64.50;;;;;;5113267;28;20027;-74
2021/07/21 11:00:16;;;;;;;6.22;3.40;;;22.30;61.00;;;;;;5113331;28;20045;-73
2021/07/21 11:02:42;;;;;;;9.77;4.03;;;22.30;61.50;;;;;;5115421;28;20016;-73
2021/07/21 11:05:29;;;;;;;6.82;3.95;;;22.30;62.20;;;;;;5096305;28;20035;-74
2021/07/21 11:07:57;;;;;;;6.97;4.03;;;22.40;59.80;;;;;;5092389;28;20396;-72
2021/07/21 11:10:43;;;;;;;5.47;3.55;;;22.30;60.40;;;;;;5093104;28;20426;-73
2021/07/21 11:13:36;;;;;;;8.18;4.20;;;22.40;59.60;;;;;;5088793;28;20120;-73
2021/07/21 11:16:07;;;;;;;4.93;3.22;;;22.50;59.80;;;;;;5076420;28;20055;-75
2021/07/21 11:18:36;;;;;;;6.07;3.78;;;22.50;59.60;;;;;;5094455;28;20376;-76
2021/07/21 11:21:09;;;;;;;8.95;4.10;;;22.50;59.90;;;;;;5096381;28;20035;-75
2021/07/21 11:23:59;;;;;;;7.65;4.25;;;22.60;60.70;;;;;;5095454;28;20019;-74
2021/07/21 11:26:34;;;;;;;9.73;4.40;;;22.60;62.70;;;;;;5096113;28;20040;-75
2021/07/21 11:29:29;;;;;;;6.38;4.13;;;22.70;62.70;;;;;;5096576;28;20032;-76
2021/07/21 11:31:55;;;;;;;7.35;4.30;;;22.80;62.10;;;;;;5095428;28;20032;-72
2021/07/21 11:34:32;;;;;;;6.63;4.13;;;22.90;65.00;;;;;;5093241;28;20434;-72
2021/07/21 11:37:04;;;;;;;32.05;18.02;;;23.00;64.40;;;;;;5107176;28;20038;-76
2021/07/21 11:39:56;;;;;;;30.42;18.75;;;23.10;62.00;;;;;;5085009;28;20043;-75
2021/07/21 11:42:40;;;;;;;12.02;6.68;;;23.10;63.40;;;;;;5076631;28;20050;-75
2021/07/21 11:45:11;;;;;;;9.32;5.25;;;23.20;63.10;;;;;;5078143;28;20039;-80
2021/07/21 11:47:40;;;;;;;7.60;4.57;;;23.20;63.30;;;;;;5101735;28;20026;-73
2021/07/21 11:50:11;;;;;;;8.50;4.70;;;23.30;60.30;;;;;;5087107;28;20032;-74
2021/07/21 11:52:38;;;;;;;6.68;4.63;;;23.30;60.60;;;;;;5085777;28;20034;-75
2021/07/21 11:55:05;;;;;;;10.43;4.43;;;23.40;61.90;;;;;;5101496;28;20056;-76
2021/07/21 11:57:31;;;;;;;6.88;4.30;;;23.50;61.20;;;;;;5092002;28;20024;-74
2021/07/21 11:59:58;;;;;;;7.10;4.18;;;23.60;60.50;;;;;;5082572;28;20024;-74
2021/07/21 12:02:25;;;;;;;7.90;3.97;;;23.50;60.00;;;;;;5083418;28;20077;-74
2021/07/21 12:04:52;;;;;;;7.90;4.53;;;23.60;60.20;;;;;;5090304;28;20486;-74
2021/07/21 12:07:23;;;;;;;13.20;5.13;;;23.60;59.80;;;;;;5078141;28;20051;-75
2021/07/21 12:09:54;;;;;;;7.00;4.38;;;23.60;60.00;;;;;;5088427;28;20071;-75
2021/07/21 12:12:23;;;;;;;7.40;4.90;;;23.60;60.40;;;;;;5085157;28;20031;-74
2021/07/21 12:14:53;;;;;;;9.25;4.40;;;23.80;61.50;;;;;;5080664;28;20080;-78
2021/07/21 12:17:19;;;;;;;11.98;4.82;;;23.80;60.70;;;;;;5109574;28;20028;-75
2021/07/21 12:19:59;;;;;;;7.80;4.57;;;23.90;60.10;;;;;;5080818;28;20031;-75
2021/07/21 12:22:29;;;;;;;7.20;4.60;;;23.90;60.90;;;;;;5083172;28;20500;-75
2021/07/21 12:24:57;;;;;;;8.48;4.43;;;24.00;61.20;;;;;;5101250;28;20161;-76
2021/07/21 12:27:33;;;;;;;7.35;4.35;;;24.10;60.40;;;;;;5091688;28;20111;-77
2021/07/21 12:30:14;;;;;;;7.35;4.47;;;24.10;60.60;;;;;;5093733;28;20035;-81
2021/07/21 12:32:40;;;;;;;8.38;4.85;;;24.10;59.30;;;;;;5093295;28;20465;-82
2021/07/21 12:35:08;;;;;;;7.07;4.85;;;24.30;59.40;;;;;;5095926;28;20043;-83
2021/07/21 12:37:43;;;;;;;8.23;4.18;;;24.30;58.00;;;;;;5091059;28;20464;-80
2021/07/21 12:40:11;;;;;;;8.85;4.45;;;24.30;58.20;;;;;;5102091;28;20037;-81
2021/07/21 12:42:38;;;;;;;6.20;4.10;;;24.30;57.70;;;;;;5101039;28;20031;-81
2021/07/21 12:45:06;;;;;;;9.90;4.70;;;24.40;57.30;;;;;;5091962;28;20026;-81
2021/07/21 12:47:34;;;;;;;7.28;4.32;;;24.50;58.20;;;;;;5097452;28;20061;-80
2021/07/21 12:50:18;;;;;;;8.55;4.63;;;24.70;58.80;;;;;;5087546;28;20028;-80
2021/07/21 12:52:46;;;;;;;7.25;4.30;;;24.90;57.40;;;;;;5107445;28;20023;-80
2021/07/21 12:55:18;;;;;;;6.75;4.35;;;25.00;57.50;;;;;;5086279;28;20036;-80
2021/07/21 12:57:48;;;;;;;6.72;4.47;;;25.10;54.80;;;;;;5080857;28;20026;-80
2021/07/21 13:00:23;;;;;;;6.65;4.68;;;25.20;55.50;;;;;;5113173;28;20028;-80
2021/07/21 13:03:10;;;;;;;7.15;4.38;;;25.40;54.40;;;;;;5098702;28;20020;-80